Smith Valley, Nevada Weather observations

Data are for 10 minute period ending at time listed.
 Day   Time   Solar   Ave.   Ave.  Ave.  Vector  Max.   Baro.   Total    
  of    of     Rad.   Air    Rel.  Wind   Wind   Wind  Press.  Precip.   
Year   Day            Temp.  Hum.  Speed  Dir.   Gust                    
2026   (PST)  Kw/m2    F      %     mph   deg.    mph    mb.     in.     
-------------------------------------------------------------------------
 126    0:00   0.00   46.2    89    4.4   234     6.0   852.8    0.00 
 126    0:10   0.00   46.0    89    3.3   266     5.9   852.9    0.00 
 126    0:20   0.00   46.1    88    3.5   285     5.5   852.9    0.00 
 126    0:30   0.00   45.5    90    1.7   184     3.4   852.9    0.00 
 126    0:40   0.00   45.6    88    1.7   266     3.4   852.9    0.00 
 126    0:50   0.00   44.7    91    2.1   134     4.2   853.0    0.00 
 126    1:00   0.00   45.1    91    1.3    98     4.3   852.9    0.00 
 126    1:10   0.00   43.9    92    2.4   130     4.7   852.9    0.00 
 126    1:20   0.00   43.2    94    0.7   126     2.2   853.0    0.00 
 126    1:30   0.00   42.7    94    1.4   237     3.2   853.0    0.00 
 126    1:40   0.00   41.2    95    2.4   271     3.9   853.1    0.00 
 126    1:50   0.00   41.6    98    0.6    81     1.4   853.3    0.00 
 126    2:00   0.00   41.9    96    0.5   186     1.6   853.3    0.00 
 126    2:10   0.00   41.1    96    1.2   186     2.0   853.5    0.00 
 126    2:20   0.00   40.3    97    2.3   228     3.3   853.5    0.00 
 126    2:30   0.00   40.6    98    3.3   268     4.1   853.6    0.00 
 126    2:40   0.00   41.2    96    0.6   278     2.4   853.7    0.00 
 126    2:50   0.00   40.9    97    1.2   118     3.1   853.9    0.00 
 126    3:00   0.00   40.5    97    1.9   161     3.6   854.0    0.00 
 126    3:10   0.00   40.0    98    2.6   190     4.2   854.0    0.00 
 126    3:20   0.00   39.4    98    2.1   175     3.2   854.0    0.00 
 126    3:30   0.00   39.6    98    1.4   121     3.2   854.1    0.00 
 126    3:40   0.00   38.8    97    1.7    86     2.6   854.3    0.00 
 126    3:50   0.00   39.2    99    2.0   108     3.3   854.3    0.00 
 126    4:00   0.00   39.2    98    1.1    84     3.2   854.4    0.00 
 126    4:10   0.00   38.5    98    1.1   246     3.0   854.6    0.00 
 126    4:20   0.00   38.5    98    0.0     0     0.0   854.7    0.00 
 126    4:30   0.00   38.4    99    0.7   252     2.0   854.7    0.00 
 126    4:40   0.00   38.2    98    1.3   248     2.0   854.8    0.00 
 126    4:50   0.00   37.5    98    0.5   218     1.7   854.9    0.00 
 126    5:00   0.00   39.3   100    1.1   179     1.5   855.0    0.00 
 126    5:10   0.02   39.2    98    2.2   214     4.1   855.2    0.00 
 126    5:20   0.05   38.3    98    1.0   267     2.6   855.4    0.00 
 126    5:30   0.07   38.6    98    1.1   297     2.4   855.6    0.00 
 126    5:40   0.07   39.7    98    0.2   108     1.1   855.7    0.00 
 126    5:50   0.14   40.8    97    0.0     0     0.0   855.8    0.00 
 126    6:00   0.20   43.6    95    0.3   108     1.2   855.9    0.00 
 126    6:10   0.21   46.8    89    0.7    69     1.6   856.0    0.00 
 126    6:20   0.25   47.4    87    1.7    62     2.6   856.1    0.00 
 126    6:30   0.28   47.0    91    2.5    84     3.7   856.2    0.00 
 126    6:40   0.31   47.8    88    2.6    87     4.3   856.4    0.00 
 126    6:50   0.35   48.7    87    2.9    90     4.3   856.5    0.00 
 126    7:00   0.38   49.5    87    2.4   107     3.9   856.5    0.00 
 126    7:10   0.42   50.8    83    1.7   110     4.0   856.5    0.00 
 126    7:20   0.46   52.0    80    1.6   115     4.2   856.4    0.00 
 126    7:30   0.49   53.4    74    0.8    35     2.5   856.4    0.00 
 126    7:40   0.53   53.8    74    1.3   339     3.5   856.4    0.00 
 126    7:50   0.56   54.0    74    2.3    22     3.6   856.5    0.00 
 126    8:00   0.60   54.8    71    2.8    41     5.1   856.5    0.00 
 126    8:10   0.63   55.7    69    3.2    42     5.3   856.5    0.00 
 126    8:20   0.67   57.0    66    1.9    43     4.9   856.5    0.00 
 126    8:30   0.69   58.0    64    1.6   352     3.8   856.4    0.00 
 126    8:40   0.73   59.1    62    0.8   305     1.9   856.5    0.00 
 126    8:50   0.77   60.4    61    1.0   318     3.6   856.5    0.00 
 126    9:00   0.80   61.1    60    1.4    56     3.6   856.6    0.00 
 126    9:10   0.83   61.3    59    1.8   312     3.2   856.7    0.00 
 126    9:20   0.86   61.9    57    1.8   170     4.2   856.7    0.00 
 126    9:30   0.89   63.6    53    1.8   193     4.4   856.7    0.00 
 126    9:40   0.92   64.3    50    2.6   230     4.6   856.8    0.00 
 126    9:50   0.94   64.3    48    2.7   338     6.7   856.9    0.00 
 126   10:00   0.96   65.0    49    4.4   125     8.6   856.8    0.00 
 126   10:10   0.99   65.3    49    3.1   118     5.7   856.9    0.00 
 126   10:20   1.01   65.9    49    3.4    94     7.1   856.9    0.00 
 126   10:30   1.03   66.1    46    2.6   117     6.1   857.0    0.00 
 126   10:40   1.05   66.3    46    3.1   356     7.1   856.9    0.00 
 126   10:50   1.06   67.4    43    3.5   272     7.4   856.9    0.00 
 126   11:00   1.08   67.9    42    4.5    56     9.2   856.9    0.00 
 126   11:10   1.09   67.8    41    4.3    59     8.9   857.0    0.00 
 126   11:20   1.10   68.5    40    4.4    38     7.7   856.9    0.00 
 126   11:30   1.11   68.8    39    4.0    18     9.0   856.9    0.00 
 126   11:40   1.11   69.1    40    4.7    63     8.2   856.7    0.00 
 126   11:50   1.11   69.4    39    3.6    45     9.9   856.6    0.00 
 126   12:00   1.11   70.2    37    4.8   119    11.9   856.5    0.00 
 126   12:10   1.11   70.2    36    6.7    75    10.9   856.5    0.00 
 126   12:20   1.11   70.5    34    5.0    68    11.1   856.5    0.00 
 126   12:30   1.11   70.5    32    4.8   335     9.5   856.5    0.00 
 126   12:40   1.10   71.1    34    6.8    79    12.8   856.4    0.00 
 126   12:50   1.10   71.6    32    4.2    88     9.5   856.4    0.00 
 126   13:00   1.09   72.3    30    6.9    52    12.2   856.4    0.00 
 126   13:10   1.07   72.6    30    7.5    46    13.2   856.4    0.00 
 126   13:20   1.06   73.0    27    5.8    43    13.2   856.3    0.00 

Return to Smith Valley graphs page.


Western Regional Climate Center,wrcc@dri.edu